Time;durP1;ratioP1;P1;durP2;ratioP2;P2;SDS_P1;SDS_P2;PMS_P1;PMS_P2;Temp;Humidity;BMP_temperature;BMP_pressure;BME280_temperature;BME280_humidity;BME280_pressure;Samples;Min_cycle;Max_cycle;Signal;HPM_P1;HPM_P2
2021/11/26 00:01:44;;;;;;;52.40;34.20;;;3.80;99.80;;;;;;5029778;28;20630;-85
2021/11/26 00:04:13;;;;;;;56.72;32.67;;;3.80;99.80;;;;;;5059626;28;20232;-86
2021/11/26 00:06:42;;;;;;;51.33;32.25;;;3.90;99.80;;;;;;5044213;28;20216;-86
2021/11/26 00:09:10;;;;;;;52.85;33.45;;;3.90;99.80;;;;;;5053604;28;20234;-85
2021/11/26 00:11:38;;;;;;;53.35;33.08;;;3.90;99.80;;;;;;5064447;28;20224;-85
2021/11/26 00:14:11;;;;;;;47.70;31.23;;;3.80;99.80;;;;;;5049197;28;20234;-85
2021/11/26 00:16:40;;;;;;;58.35;31.63;;;3.80;99.80;;;;;;5044774;28;20222;-86
2021/11/26 00:19:09;;;;;;;53.72;32.38;;;3.80;99.80;;;;;;5044657;28;20274;-85
2021/11/26 00:21:39;;;;;;;49.63;32.95;;;3.80;99.80;;;;;;5038445;28;20238;-86
2021/11/26 00:24:12;;;;;;;52.75;32.00;;;3.70;99.80;;;;;;5057268;28;20223;-87
2021/11/26 00:26:41;;;;;;;52.15;32.58;;;3.70;99.80;;;;;;5055755;28;20225;-85
2021/11/26 00:29:09;;;;;;;48.33;31.45;;;3.60;99.80;;;;;;5062609;28;20235;-86
2021/11/26 00:31:40;;;;;;;51.40;32.80;;;3.60;99.80;;;;;;5056322;28;20234;-86
2021/11/26 00:34:09;;;;;;;44.60;27.40;;;3.50;99.80;;;;;;5046308;28;20665;-86
2021/11/26 00:36:38;;;;;;;32.00;18.92;;;3.60;99.80;;;;;;5046233;28;20885;-85
2021/11/26 00:39:07;;;;;;;43.90;28.55;;;3.40;99.80;;;;;;5064823;28;20230;-86
2021/11/26 00:41:36;;;;;;;37.63;21.75;;;3.40;99.80;;;;;;5053201;28;20611;-85
2021/11/26 00:44:11;;;;;;;40.97;23.13;;;3.30;99.80;;;;;;5053524;28;20221;-86
2021/11/26 00:46:39;;;;;;;35.67;20.38;;;3.30;99.80;;;;;;5056734;28;20226;-85
2021/11/26 00:49:07;;;;;;;48.70;28.30;;;3.30;99.80;;;;;;5035803;28;20228;-85
2021/11/26 00:51:35;;;;;;;49.92;30.90;;;3.20;99.80;;;;;;5059736;28;20227;-85
2021/11/26 00:54:03;;;;;;;45.92;29.48;;;3.20;99.80;;;;;;5050320;28;20723;-85
2021/11/26 00:56:31;;;;;;;49.92;29.33;;;3.20;99.80;;;;;;5055898;28;20223;-85
2021/11/26 00:59:00;;;;;;;52.53;32.10;;;3.20;99.80;;;;;;5050807;28;20224;-85
2021/11/26 01:01:28;;;;;;;38.03;22.23;;;3.20;99.80;;;;;;5043414;28;20809;-86
2021/11/26 01:03:57;;;;;;;48.28;30.35;;;3.20;99.80;;;;;;5052609;28;20233;-86
2021/11/26 01:06:24;;;;;;;56.72;31.52;;;3.30;99.80;;;;;;5071782;28;20235;-86
2021/11/26 01:08:52;;;;;;;37.83;24.88;;;3.30;99.80;;;;;;5067275;28;20236;-86
2021/11/26 01:11:21;;;;;;;38.72;24.35;;;3.30;99.80;;;;;;5061358;28;20238;-86
2021/11/26 01:13:51;;;;;;;49.60;29.50;;;3.30;99.80;;;;;;5054406;28;20243;-85
2021/11/26 01:16:24;;;;;;;49.08;31.80;;;3.40;99.80;;;;;;5057537;28;20244;-85
2021/11/26 01:18:52;;;;;;;51.25;30.77;;;3.40;99.80;;;;;;5055372;28;20235;-85
2021/11/26 01:21:23;;;;;;;46.40;29.90;;;3.40;99.80;;;;;;5060607;28;20236;-85
2021/11/26 01:23:51;;;;;;;40.47;22.13;;;3.40;99.80;;;;;;5055616;28;20312;-86
2021/11/26 01:26:19;;;;;;;44.75;24.13;;;3.30;99.80;;;;;;5052784;28;20235;-86
2021/11/26 01:28:49;;;;;;;38.40;23.40;;;3.30;99.80;;;;;;5065586;28;20287;-87
2021/11/26 01:31:17;;;;;;;39.20;21.85;;;3.20;99.80;;;;;;5063106;28;20235;-86
2021/11/26 01:33:46;;;;;;;42.72;23.67;;;3.20;99.80;;;;;;5058281;28;20721;-87
2021/11/26 01:36:14;;;;;;;50.40;24.38;;;3.20;99.80;;;;;;5059799;28;20228;-86
2021/11/26 01:38:42;;;;;;;44.60;26.25;;;3.20;99.80;;;;;;5055797;28;20228;-87
2021/11/26 01:41:11;;;;;;;55.28;31.10;;;3.20;99.80;;;;;;5057861;28;20232;-86
2021/11/26 01:43:39;;;;;;;50.63;32.28;;;3.20;99.80;;;;;;5052449;28;20778;-86
2021/11/26 01:46:09;;;;;;;38.47;20.73;;;3.30;99.80;;;;;;5050854;28;20219;-87
2021/11/26 01:48:39;;;;;;;53.15;32.00;;;3.30;99.80;;;;;;5060462;28;21240;-86
2021/11/26 01:51:10;;;;;;;51.95;30.98;;;3.30;99.80;;;;;;5053747;28;20230;-87
2021/11/26 01:53:39;;;;;;;50.65;31.13;;;3.40;99.80;;;;;;5063160;28;20223;-86
2021/11/26 01:56:07;;;;;;;50.25;30.90;;;3.40;99.80;;;;;;5037935;28;20230;-87
2021/11/26 01:58:35;;;;;;;57.30;31.65;;;3.40;99.80;;;;;;5030593;28;20994;-87
2021/11/26 02:01:04;;;;;;;53.33;31.48;;;3.40;99.80;;;;;;5061564;28;20233;-87
2021/11/26 02:03:33;;;;;;;52.83;34.90;;;3.40;99.80;;;;;;5060854;28;20262;-87
2021/11/26 02:06:01;;;;;;;59.90;32.22;;;3.30;99.80;;;;;;5053377;28;20232;-87
2021/11/26 02:08:30;;;;;;;53.42;32.53;;;3.30;99.80;;;;;;5055660;28;20249;-87
2021/11/26 02:10:58;;;;;;;47.47;30.35;;;3.30;99.80;;;;;;5051572;28;20747;-87
2021/11/26 02:13:27;;;;;;;56.67;32.40;;;3.20;99.80;;;;;;5062517;28;20233;-86
2021/11/26 02:15:55;;;;;;;41.90;24.80;;;3.20;99.80;;;;;;5064337;28;20230;-86
2021/11/26 02:18:23;;;;;;;33.55;21.60;;;3.10;99.80;;;;;;5048365;28;20239;-87
2021/11/26 02:20:53;;;;;;;50.80;32.00;;;3.10;99.80;;;;;;5055201;28;20232;-87
2021/11/26 02:23:21;;;;;;;45.30;28.95;;;3.10;99.80;;;;;;5063004;28;20224;-87
2021/11/26 02:25:49;;;;;;;39.85;24.52;;;3.10;99.80;;;;;;5053765;28;20235;-87
2021/11/26 02:28:19;;;;;;;40.45;22.33;;;3.20;99.80;;;;;;5054799;28;20227;-87
2021/11/26 02:30:48;;;;;;;37.30;24.08;;;3.10;99.80;;;;;;5054126;28;20277;-87
2021/11/26 02:33:21;;;;;;;45.58;22.50;;;3.10;99.80;;;;;;5055690;28;20224;-87
2021/11/26 02:35:51;;;;;;;45.10;28.60;;;3.10;99.80;;;;;;5066141;28;20228;-86
2021/11/26 02:38:23;;;;;;;41.10;23.63;;;3.20;99.80;;;;;;5052652;28;20237;-87
2021/11/26 02:40:51;;;;;;;33.15;20.42;;;3.20;99.80;;;;;;5060056;28;20229;-86
2021/11/26 02:43:20;;;;;;;55.47;22.75;;;3.10;99.80;;;;;;5065505;28;20223;-87
2021/11/26 02:45:49;;;;;;;46.97;28.92;;;3.20;99.80;;;;;;5057404;28;20252;-87
2021/11/26 02:48:17;;;;;;;39.95;25.20;;;3.20;99.80;;;;;;5053372;28;20220;-87
2021/11/26 02:50:47;;;;;;;53.78;31.15;;;3.20;99.80;;;;;;5065455;28;20253;-87
2021/11/26 02:53:15;;;;;;;38.50;23.58;;;3.10;99.80;;;;;;5060499;28;20230;-87
2021/11/26 02:55:44;;;;;;;42.75;25.98;;;3.10;99.80;;;;;;5057609;28;20237;-87
2021/11/26 02:58:13;;;;;;;44.30;26.60;;;3.10;99.80;;;;;;5049203;28;20222;-87
2021/11/26 03:00:43;;;;;;;46.22;27.98;;;3.10;99.80;;;;;;5070821;28;20856;-86
2021/11/26 03:03:11;;;;;;;58.15;30.05;;;3.10;99.80;;;;;;5056505;28;20631;-87
2021/11/26 03:05:40;;;;;;;61.63;29.88;;;3.10;99.80;;;;;;5069662;28;20256;-87
2021/11/26 03:08:09;;;;;;;42.78;25.92;;;3.10;99.80;;;;;;5037400;28;20223;-86
2021/11/26 03:10:38;;;;;;;45.10;28.10;;;3.10;99.80;;;;;;5064563;28;20225;-87
2021/11/26 03:13:09;;;;;;;48.65;23.45;;;3.00;99.80;;;;;;5050059;28;20227;-87
2021/11/26 03:15:40;;;;;;;40.47;19.95;;;3.10;99.80;;;;;;5049517;28;20224;-87
2021/11/26 03:18:08;;;;;;;41.33;23.08;;;3.10;99.80;;;;;;5048896;28;20223;-84
2021/11/26 03:20:37;;;;;;;37.13;20.42;;;3.00;99.80;;;;;;5064110;28;20604;-85
2021/11/26 03:23:05;;;;;;;36.13;20.27;;;3.00;99.80;;;;;;5069078;28;20232;-84
2021/11/26 03:25:33;;;;;;;37.90;19.42;;;3.00;99.80;;;;;;5070001;28;20685;-84
2021/11/26 03:28:01;;;;;;;35.67;20.13;;;3.00;99.80;;;;;;5067936;28;20221;-84
2021/11/26 03:30:30;;;;;;;39.08;21.42;;;3.00;99.80;;;;;;5064085;28;20873;-84
2021/11/26 03:32:58;;;;;;;46.03;27.55;;;3.10;99.80;;;;;;5075448;28;20232;-84
2021/11/26 03:35:26;;;;;;;42.03;23.02;;;3.10;99.80;;;;;;5059670;28;20226;-85
2021/11/26 03:37:55;;;;;;;45.67;27.83;;;3.10;99.80;;;;;;5049680;28;20227;-85
2021/11/26 03:40:24;;;;;;;35.40;21.33;;;3.20;99.80;;;;;;5036897;28;20229;-84
2021/11/26 03:42:53;;;;;;;49.08;30.10;;;3.20;99.80;;;;;;5034305;28;20234;-85
2021/11/26 03:45:23;;;;;;;49.20;30.52;;;3.20;99.80;;;;;;5072690;28;20228;-84
2021/11/26 03:47:53;;;;;;;48.33;29.90;;;3.20;99.80;;;;;;5060809;28;20691;-84
2021/11/26 03:50:23;;;;;;;49.80;30.30;;;3.10;99.80;;;;;;5066645;28;20242;-86
2021/11/26 03:52:51;;;;;;;55.35;27.33;;;3.10;99.80;;;;;;5049215;28;20243;-85
2021/11/26 03:55:22;;;;;;;41.38;24.75;;;3.10;99.80;;;;;;5060876;28;20233;-84
2021/11/26 03:57:52;;;;;;;52.10;31.30;;;3.10;99.80;;;;;;5068468;28;20227;-85
2021/11/26 04:00:20;;;;;;;40.15;23.23;;;3.20;99.80;;;;;;5063319;28;20227;-84
2021/11/26 04:02:48;;;;;;;48.22;30.55;;;3.20;99.80;;;;;;5062311;28;20238;-85
2021/11/26 04:05:19;;;;;;;47.53;29.88;;;3.10;99.80;;;;;;5061174;28;20238;-85
2021/11/26 04:07:49;;;;;;;55.72;32.30;;;3.20;99.80;;;;;;5049091;28;20240;-85
2021/11/26 04:10:18;;;;;;;50.30;30.50;;;3.20;99.80;;;;;;5036530;28;20362;-84
2021/11/26 04:12:49;;;;;;;53.22;32.03;;;3.20;99.80;;;;;;5048244;28;20262;-84
2021/11/26 04:15:18;;;;;;;55.38;31.92;;;3.20;99.80;;;;;;5044861;28;20316;-85
2021/11/26 04:17:50;;;;;;;51.25;31.70;;;3.20;99.80;;;;;;5060292;28;20234;-85
2021/11/26 04:20:20;;;;;;;55.13;31.60;;;3.20;99.80;;;;;;5061910;28;20764;-84
2021/11/26 04:22:48;;;;;;;55.50;32.58;;;3.20;99.80;;;;;;5047290;28;20278;-85
2021/11/26 04:25:18;;;;;;;53.63;31.63;;;3.20;99.80;;;;;;5075581;28;20227;-84
2021/11/26 04:27:47;;;;;;;53.42;32.10;;;3.10;99.80;;;;;;5053180;28;20242;-85
2021/11/26 04:30:17;;;;;;;43.67;23.83;;;3.10;99.80;;;;;;5052916;28;20702;-84
2021/11/26 04:32:47;;;;;;;57.15;32.05;;;3.10;99.80;;;;;;5066875;28;20239;-84
2021/11/26 04:35:15;;;;;;;47.85;29.60;;;3.10;99.80;;;;;;5083298;28;20231;-84
2021/11/26 04:37:45;;;;;;;56.22;31.90;;;3.10;99.80;;;;;;5058269;28;20243;-84
2021/11/26 04:40:15;;;;;;;53.20;31.90;;;3.10;99.80;;;;;;5068547;28;20228;-85
2021/11/26 04:42:52;;;;;;;55.70;32.25;;;3.10;99.80;;;;;;5034605;28;20480;-84
2021/11/26 04:45:20;;;;;;;51.75;32.05;;;3.10;99.80;;;;;;5073058;28;20779;-84
2021/11/26 04:47:49;;;;;;;48.08;31.40;;;3.10;99.80;;;;;;5066554;28;20293;-84
2021/11/26 04:50:18;;;;;;;51.65;30.25;;;3.10;99.80;;;;;;5058765;28;20769;-84
2021/11/26 04:52:47;;;;;;;53.35;32.08;;;3.10;99.80;;;;;;5056699;28;20259;-83
2021/11/26 04:55:16;;;;;;;34.20;20.83;;;3.10;99.80;;;;;;5054046;28;20306;-84
2021/11/26 04:57:45;;;;;;;57.88;31.90;;;3.10;99.80;;;;;;5073529;28;20290;-84
2021/11/26 05:00:15;;;;;;;49.42;29.27;;;3.00;99.80;;;;;;5062469;28;20661;-85
2021/11/26 05:02:44;;;;;;;55.38;30.30;;;3.00;99.80;;;;;;5053233;28;20232;-84
2021/11/26 05:05:12;;;;;;;46.42;28.48;;;3.00;99.80;;;;;;5076987;28;20680;-84
2021/11/26 05:07:40;;;;;;;52.90;31.20;;;3.00;99.80;;;;;;5069655;28;20235;-84
2021/11/26 05:10:11;;;;;;;58.55;31.50;;;2.90;99.80;;;;;;5068910;28;20708;-84
2021/11/26 05:12:42;;;;;;;54.85;31.90;;;2.90;99.80;;;;;;5067626;28;20280;-84
2021/11/26 05:15:11;;;;;;;65.78;31.38;;;2.90;99.80;;;;;;5069735;28;20874;-84
2021/11/26 05:17:39;;;;;;;59.50;32.28;;;2.90;99.80;;;;;;5069578;28;20231;-84
2021/11/26 05:20:08;;;;;;;51.97;31.80;;;2.90;99.80;;;;;;5064206;28;20235;-84
2021/11/26 05:22:40;;;;;;;53.60;32.90;;;2.90;99.80;;;;;;5053527;28;20239;-84
2021/11/26 05:25:10;;;;;;;50.95;31.80;;;2.90;99.80;;;;;;5049334;28;20787;-84
2021/11/26 05:27:38;;;;;;;53.72;31.42;;;2.90;99.80;;;;;;5052030;28;20236;-84
2021/11/26 05:30:07;;;;;;;59.47;31.05;;;2.90;99.80;;;;;;5042500;28;20623;-85
2021/11/26 05:32:35;;;;;;;55.15;33.63;;;2.80;99.80;;;;;;5055908;28;20228;-85
2021/11/26 05:35:04;;;;;;;55.63;32.03;;;2.80;99.80;;;;;;5055095;28;20235;-85
2021/11/26 05:37:32;;;;;;;53.65;31.20;;;2.80;99.80;;;;;;5043944;28;20239;-84
2021/11/26 05:40:02;;;;;;;50.65;28.73;;;2.70;99.80;;;;;;5051485;28;20257;-84
2021/11/26 05:42:32;;;;;;;52.72;31.52;;;2.70;99.80;;;;;;5049951;28;20254;-84
2021/11/26 05:45:00;;;;;;;56.15;32.33;;;2.70;99.80;;;;;;5038290;28;20232;-84
2021/11/26 05:47:28;;;;;;;55.20;32.55;;;2.70;99.80;;;;;;5043877;28;20231;-84
2021/11/26 05:50:01;;;;;;;61.83;30.98;;;2.70;99.80;;;;;;5039767;28;20230;-86
2021/11/26 05:52:29;;;;;;;56.15;30.05;;;2.70;99.80;;;;;;5060305;28;20235;-85
2021/11/26 05:54:57;;;;;;;50.42;29.30;;;2.80;99.80;;;;;;5056377;28;20228;-85
2021/11/26 05:57:25;;;;;;;58.28;31.85;;;2.80;99.80;;;;;;5047600;28;20214;-85
2021/11/26 05:59:54;;;;;;;54.55;32.65;;;2.80;99.80;;;;;;5053722;28;20237;-87
2021/11/26 06:02:22;;;;;;;53.65;31.42;;;2.80;99.80;;;;;;5058382;28;20231;-86
2021/11/26 06:04:50;;;;;;;48.10;31.83;;;2.80;99.80;;;;;;5058763;28;20315;-86
2021/11/26 06:07:18;;;;;;;55.38;32.65;;;2.80;99.80;;;;;;5066725;28;20216;-86
2021/11/26 06:09:46;;;;;;;57.08;33.47;;;2.80;99.80;;;;;;5064384;28;20233;-84
2021/11/26 06:12:14;;;;;;;60.10;32.10;;;2.80;99.80;;;;;;5071716;28;20249;-84
2021/11/26 06:14:42;;;;;;;52.50;30.27;;;2.80;99.80;;;;;;5071129;28;20242;-84
2021/11/26 06:17:17;;;;;;;52.88;33.30;;;2.80;99.80;;;;;;5036651;28;20223;-84
2021/11/26 06:19:45;;;;;;;52.35;31.73;;;2.80;99.80;;;;;;5056737;28;20740;-84
2021/11/26 06:22:14;;;;;;;53.28;31.08;;;2.80;99.80;;;;;;5071206;28;20296;-85
2021/11/26 06:24:45;;;;;;;54.95;30.42;;;2.80;99.80;;;;;;5063661;28;20220;-85
2021/11/26 06:27:13;;;;;;;50.08;26.55;;;2.80;99.80;;;;;;5072430;28;20229;-84
2021/11/26 06:29:41;;;;;;;49.78;24.58;;;2.80;99.80;;;;;;5065464;28;20305;-84
2021/11/26 06:32:09;;;;;;;64.43;32.53;;;2.70;99.80;;;;;;5047399;28;20228;-85
2021/11/26 06:34:39;;;;;;;60.58;33.70;;;2.70;99.80;;;;;;5035022;28;20240;-84
2021/11/26 06:37:07;;;;;;;54.83;32.58;;;2.60;99.80;;;;;;5053586;28;20218;-84
2021/11/26 06:39:35;;;;;;;50.75;30.83;;;2.70;99.80;;;;;;5050763;28;20272;-84
2021/11/26 06:42:04;;;;;;;60.85;31.50;;;2.70;99.80;;;;;;5052267;28;20235;-84
2021/11/26 06:44:36;;;;;;;59.92;35.08;;;2.70;99.80;;;;;;5041072;28;20227;-83
2021/11/26 06:47:04;;;;;;;56.03;33.47;;;2.70;99.80;;;;;;5053463;28;20224;-84
2021/11/26 06:49:39;;;;;;;54.67;33.92;;;2.70;99.80;;;;;;5053432;28;20239;-83
2021/11/26 06:52:12;;;;;;;57.50;32.80;;;2.70;99.80;;;;;;5057232;28;20223;-84
2021/11/26 06:54:40;;;;;;;53.78;34.25;;;2.80;99.80;;;;;;5064095;28;20241;-83
2021/11/26 06:57:08;;;;;;;57.15;34.55;;;2.80;99.80;;;;;;5052881;28;20229;-84
2021/11/26 06:59:38;;;;;;;53.03;31.85;;;2.80;99.80;;;;;;5049344;28;20240;-84
2021/11/26 07:02:06;;;;;;;55.17;32.53;;;2.80;99.80;;;;;;5036896;28;20234;-84
2021/11/26 07:04:34;;;;;;;55.78;32.42;;;2.80;99.80;;;;;;5039455;28;20234;-84
2021/11/26 07:07:02;;;;;;;58.63;34.00;;;2.80;99.80;;;;;;5053515;28;20227;-84
2021/11/26 07:09:32;;;;;;;56.03;33.17;;;2.90;99.80;;;;;;5055360;28;20310;-84
2021/11/26 07:12:05;;;;;;;57.85;32.88;;;2.90;99.80;;;;;;5046193;28;20230;-84
2021/11/26 07:14:42;;;;;;;60.30;33.95;;;3.00;99.80;;;;;;5054257;28;20264;-84
2021/11/26 07:17:11;;;;;;;63.83;34.08;;;3.00;99.80;;;;;;5034122;28;20239;-84
2021/11/26 07:19:40;;;;;;;56.70;35.60;;;3.00;99.80;;;;;;5054019;28;20222;-84
2021/11/26 07:22:08;;;;;;;60.75;34.17;;;3.10;99.80;;;;;;5056659;28;20242;-83
2021/11/26 07:24:38;;;;;;;55.65;32.63;;;3.10;99.80;;;;;;5052233;28;20584;-83
2021/11/26 07:27:06;;;;;;;59.50;34.55;;;3.10;99.80;;;;;;5074847;28;20245;-82
2021/11/26 07:29:34;;;;;;;56.67;34.92;;;3.20;99.80;;;;;;5060223;28;20225;-83
2021/11/26 07:32:03;;;;;;;57.03;34.30;;;3.20;99.80;;;;;;5053312;28;20301;-83
2021/11/26 07:34:31;;;;;;;57.97;34.53;;;3.20;99.80;;;;;;5042553;28;20227;-82
2021/11/26 07:36:59;;;;;;;55.78;34.63;;;3.30;99.80;;;;;;5062662;28;20233;-82
2021/11/26 07:39:32;;;;;;;65.82;37.15;;;3.30;99.80;;;;;;5059199;28;20313;-82
2021/11/26 07:42:04;;;;;;;55.88;32.97;;;3.30;99.80;;;;;;5065572;28;20266;-83
2021/11/26 07:44:33;;;;;;;61.65;34.67;;;3.40;99.80;;;;;;5045666;28;20224;-82
2021/11/26 07:47:01;;;;;;;59.70;36.60;;;3.50;99.80;;;;;;5058815;28;20231;-82
2021/11/26 07:49:29;;;;;;;56.67;33.72;;;3.50;99.80;;;;;;5055956;28;20605;-82
2021/11/26 07:51:58;;;;;;;65.93;36.08;;;3.50;99.80;;;;;;5052067;28;20227;-82
2021/11/26 07:54:27;;;;;;;60.58;34.13;;;3.50;99.80;;;;;;5059938;28;20235;-82
2021/11/26 07:56:55;;;;;;;77.82;36.83;;;3.60;99.80;;;;;;5056439;28;20221;-82
2021/11/26 07:59:27;;;;;;;67.93;35.65;;;3.60;99.80;;;;;;5057747;28;20705;-82
2021/11/26 08:01:56;;;;;;;57.15;33.33;;;3.60;99.80;;;;;;5051668;28;20227;-82
2021/11/26 08:04:24;;;;;;;58.78;33.70;;;3.70;99.80;;;;;;5038938;28;20294;-82
2021/11/26 08:06:52;;;;;;;77.60;37.42;;;3.80;99.80;;;;;;5060624;28;20257;-82
2021/11/26 08:09:21;;;;;;;62.15;38.67;;;3.80;99.80;;;;;;5045849;28;20246;-82
2021/11/26 08:11:51;;;;;;;67.15;39.25;;;3.90;99.80;;;;;;5039849;28;20603;-83
2021/11/26 08:14:22;;;;;;;60.92;34.95;;;3.90;99.80;;;;;;5049582;28;20229;-83
2021/11/26 08:16:55;;;;;;;61.80;34.78;;;3.90;99.80;;;;;;5053002;28;20238;-82
2021/11/26 08:19:25;;;;;;;56.47;33.80;;;3.80;99.80;;;;;;5058510;28;20232;-82
2021/11/26 08:21:55;;;;;;;57.05;32.85;;;3.80;99.80;;;;;;5039146;28;20348;-82
2021/11/26 08:24:24;;;;;;;54.63;35.15;;;3.70;99.80;;;;;;5048512;28;20250;-82
2021/11/26 08:26:53;;;;;;;60.72;33.72;;;3.70;99.80;;;;;;5056175;28;20242;-82
2021/11/26 08:29:21;;;;;;;59.60;34.72;;;3.70;99.80;;;;;;5053416;28;20230;-82
2021/11/26 08:31:49;;;;;;;63.08;35.38;;;3.70;99.80;;;;;;5056432;28;20266;-84
2021/11/26 08:34:19;;;;;;;52.50;32.42;;;3.70;99.80;;;;;;5047835;28;20226;-83
2021/11/26 08:36:47;;;;;;;52.60;32.05;;;3.80;99.80;;;;;;5065433;28;20220;-82
2021/11/26 08:39:15;;;;;;;50.55;32.72;;;3.90;99.80;;;;;;5051752;28;20314;-86
2021/11/26 08:41:45;;;;;;;57.55;33.63;;;4.00;99.80;;;;;;5065185;28;20288;-82
2021/11/26 08:44:14;;;;;;;57.20;34.22;;;4.10;99.80;;;;;;5059339;28;20278;-82
2021/11/26 08:46:55;;;;;;;62.70;34.30;;;4.20;99.80;;;;;;5062821;28;20235;-82
2021/11/26 08:49:24;;;;;;;53.95;35.13;;;4.30;99.80;;;;;;5065531;28;20231;-83
2021/11/26 08:51:54;;;;;;;59.72;35.67;;;4.40;99.80;;;;;;5066620;28;20220;-82
2021/11/26 08:54:24;;;;;;;57.60;34.13;;;4.60;99.80;;;;;;5066294;28;20240;-82
2021/11/26 08:57:00;;;;;;;60.15;34.67;;;4.70;99.80;;;;;;5067655;28;20227;-83
2021/11/26 08:59:28;;;;;;;57.22;37.17;;;4.80;99.80;;;;;;5067345;28;20302;-83
2021/11/26 09:01:56;;;;;;;67.00;38.03;;;4.70;99.80;;;;;;5060320;28;20630;-83
2021/11/26 09:04:26;;;;;;;61.20;36.42;;;4.70;99.80;;;;;;5059165;28;20237;-83
2021/11/26 09:06:54;;;;;;;64.57;39.00;;;4.70;99.80;;;;;;5062415;28;20220;-83
2021/11/26 09:09:23;;;;;;;59.28;34.80;;;4.70;99.80;;;;;;5063623;28;20224;-82
2021/11/26 09:11:52;;;;;;;59.65;36.08;;;4.80;99.80;;;;;;5059877;28;20235;-84
2021/11/26 09:14:24;;;;;;;55.70;35.00;;;4.80;99.80;;;;;;5065326;28;20220;-83
2021/11/26 09:16:52;;;;;;;55.13;34.70;;;4.90;99.80;;;;;;5064507;28;20227;-82
2021/11/26 09:19:20;;;;;;;62.10;38.13;;;4.90;99.80;;;;;;5062980;28;20224;-83
2021/11/26 09:21:49;;;;;;;63.85;38.75;;;4.80;99.80;;;;;;5060464;28;20261;-83
2021/11/26 09:24:18;;;;;;;58.15;34.58;;;4.80;99.80;;;;;;5062864;28;20233;-82
2021/11/26 09:26:46;;;;;;;70.10;39.00;;;4.70;99.80;;;;;;5060590;28;20229;-82
2021/11/26 09:29:14;;;;;;;66.80;39.60;;;4.70;99.80;;;;;;5064620;28;20224;-83
2021/11/26 09:31:42;;;;;;;58.25;35.10;;;4.80;99.80;;;;;;5061796;28;20717;-82
2021/11/26 09:34:10;;;;;;;54.72;34.50;;;4.80;99.80;;;;;;5060450;28;20236;-83
2021/11/26 09:36:38;;;;;;;54.63;33.50;;;4.80;99.80;;;;;;5067498;28;20716;-82
2021/11/26 09:39:08;;;;;;;56.65;34.65;;;4.80;99.80;;;;;;5058528;28;20689;-83
2021/11/26 09:41:36;;;;;;;59.33;35.40;;;4.80;99.80;;;;;;5061231;28;20236;-83
2021/11/26 09:44:04;;;;;;;62.58;34.50;;;4.80;99.80;;;;;;5065005;28;20216;-82
2021/11/26 09:46:36;;;;;;;56.42;32.63;;;4.80;99.80;;;;;;5063476;28;20231;-82
2021/11/26 09:49:05;;;;;;;60.80;35.13;;;4.80;99.80;;;;;;5060256;28;20248;-82
2021/11/26 09:51:34;;;;;;;69.30;35.85;;;4.80;99.80;;;;;;5062601;28;20319;-82
2021/11/26 09:54:02;;;;;;;57.42;35.25;;;4.90;99.80;;;;;;5063561;28;20714;-83
2021/11/26 09:56:31;;;;;;;55.85;35.05;;;4.90;99.80;;;;;;5062896;28;20912;-83
2021/11/26 09:58:59;;;;;;;53.97;34.78;;;4.90;99.80;;;;;;5063602;28;20232;-83
2021/11/26 10:01:28;;;;;;;61.53;38.97;;;5.00;99.80;;;;;;5058436;28;20224;-82
2021/11/26 10:03:56;;;;;;;54.97;34.05;;;5.20;99.80;;;;;;5060302;28;20308;-82
2021/11/26 10:06:27;;;;;;;68.28;41.75;;;5.20;99.80;;;;;;5065492;28;20235;-83
2021/11/26 10:09:01;;;;;;;61.55;38.00;;;5.30;99.80;;;;;;5059120;28;20717;-83
2021/11/26 10:11:33;;;;;;;62.60;35.30;;;5.30;99.80;;;;;;5062550;28;20779;-83
2021/11/26 10:14:13;;;;;;;56.95;37.22;;;5.40;99.80;;;;;;5060875;28;20231;-83
2021/11/26 10:17:07;;;;;;;58.55;33.67;;;5.60;99.80;;;;;;5059906;28;20224;-83
2021/11/26 10:19:38;;;;;;;62.70;38.38;;;5.60;99.80;;;;;;5063861;28;20224;-83
2021/11/26 10:22:18;;;;;;;60.63;34.58;;;5.60;99.80;;;;;;5063453;28;20220;-83
2021/11/26 10:25:03;;;;;;;68.72;38.05;;;5.50;99.80;;;;;;5066071;28;20239;-83
2021/11/26 10:27:39;;;;;;;65.53;38.42;;;5.60;99.80;;;;;;5065465;28;20235;-82
2021/11/26 10:30:14;;;;;;;63.05;39.10;;;5.60;99.80;;;;;;5064110;28;20238;-83
2021/11/26 10:32:52;;;;;;;60.85;36.72;;;5.50;99.80;;;;;;5063499;28;20238;-84
2021/11/26 10:35:20;;;;;;;59.33;36.63;;;5.50;99.80;;;;;;5061917;28;20932;-83
2021/11/26 10:37:59;;;;;;;69.15;38.55;;;5.40;99.80;;;;;;5067210;28;20239;-82
2021/11/26 10:40:32;;;;;;;66.65;36.15;;;5.30;99.80;;;;;;5061048;28;20222;-83
2021/11/26 10:43:03;;;;;;;68.50;43.30;;;5.20;99.80;;;;;;5062864;28;20231;-83
2021/11/26 10:45:50;;;;;;;60.22;38.08;;;5.20;99.80;;;;;;5060627;28;20324;-83
2021/11/26 10:48:52;;;;;;;59.97;36.97;;;5.20;99.80;;;;;;5058316;28;20253;-83
2021/11/26 10:57:36;;;;;;;58.83;36.97;;;5.20;99.80;;;;;;5060112;28;20224;-84
2021/11/26 11:00:11;;;;;;;53.38;34.65;;;5.10;99.80;;;;;;5059853;28;20220;-83
2021/11/26 11:02:41;;;;;;;53.88;34.08;;;5.10;99.80;;;;;;5056787;28;20229;-82
2021/11/26 11:05:21;;;;;;;64.45;36.90;;;5.10;99.80;;;;;;5061620;28;20709;-83
2021/11/26 11:07:50;;;;;;;55.58;34.03;;;5.10;99.80;;;;;;5057646;28;20601;-83
2021/11/26 11:10:26;;;;;;;52.03;32.72;;;5.20;99.80;;;;;;5066080;28;20583;-82
2021/11/26 11:12:55;;;;;;;59.42;35.53;;;5.20;99.80;;;;;;5061150;28;20940;-83
2021/11/26 11:15:25;;;;;;;66.35;36.63;;;5.20;99.80;;;;;;5064247;28;20220;-82
2021/11/26 11:17:53;;;;;;;58.78;37.25;;;5.20;99.80;;;;;;5058264;28;20239;-83
2021/11/26 11:20:23;;;;;;;55.67;32.90;;;5.20;99.80;;;;;;5060945;28;20406;-83
2021/11/26 11:22:51;;;;;;;59.05;35.42;;;5.10;99.80;;;;;;5058256;28;20230;-82
2021/11/26 11:25:27;;;;;;;59.25;37.47;;;5.10;99.80;;;;;;5060529;28;20220;-83
2021/11/26 11:27:58;;;;;;;60.80;37.95;;;5.00;99.80;;;;;;5062580;28;20736;-82
2021/11/26 11:30:28;;;;;;;65.70;36.38;;;5.00;99.80;;;;;;5059460;28;20249;-83
2021/11/26 11:32:56;;;;;;;59.63;37.97;;;4.90;99.80;;;;;;5060341;28;20221;-83
2021/11/26 11:35:28;;;;;;;79.43;37.55;;;4.90;99.80;;;;;;5062513;28;20228;-82
2021/11/26 11:38:00;;;;;;;68.45;39.03;;;4.90;99.80;;;;;;5065156;28;22401;-82
2021/11/26 11:40:30;;;;;;;69.05;40.22;;;4.80;99.80;;;;;;5065964;28;20231;-83
2021/11/26 11:43:08;;;;;;;58.70;34.25;;;4.80;99.80;;;;;;5059782;28;20315;-83
2021/11/26 11:45:40;;;;;;;68.25;41.08;;;4.80;99.80;;;;;;5065616;28;20306;-82
2021/11/26 11:48:09;;;;;;;61.42;35.60;;;4.70;99.80;;;;;;5065677;28;20703;-80
2021/11/26 11:50:44;;;;;;;62.08;37.10;;;4.70;99.80;;;;;;5068450;28;20317;-82
2021/11/26 11:53:28;;;;;;;55.78;35.47;;;4.60;99.80;;;;;;5061213;28;20231;-82
2021/11/26 11:56:07;;;;;;;57.47;34.40;;;4.60;99.80;;;;;;5064644;28;20227;-82
2021/11/26 11:58:46;;;;;;;62.08;36.15;;;4.50;99.80;;;;;;5058884;28;20243;-82
2021/11/26 12:01:26;;;;;;;61.35;39.22;;;4.50;99.80;;;;;;5060854;28;20232;-82
2021/11/26 12:03:57;;;;;;;60.85;37.53;;;4.50;99.80;;;;;;5064267;28;20227;-82
2021/11/26 12:06:37;;;;;;;66.78;38.97;;;4.60;99.80;;;;;;5068955;28;20277;-82
2021/11/26 12:09:06;;;;;;;59.35;37.22;;;4.50;99.80;;;;;;5064046;28;20259;-83
2021/11/26 12:11:36;;;;;;;63.60;37.95;;;4.50;99.80;;;;;;5049581;28;20594;-83
2021/11/26 12:14:07;;;;;;;67.85;38.63;;;4.50;99.80;;;;;;5062970;28;20303;-82
2021/11/26 12:16:47;;;;;;;65.13;38.63;;;4.50;99.80;;;;;;5066273;28;20257;-83
2021/11/26 12:19:24;;;;;;;64.88;37.45;;;4.40;99.80;;;;;;5062873;28;20236;-82
2021/11/26 12:21:56;;;;;;;68.68;40.03;;;4.40;99.80;;;;;;5071858;28;20251;-81
2021/11/26 12:24:33;;;;;;;67.32;41.42;;;4.50;99.80;;;;;;5070518;28;20239;-81
2021/11/26 12:27:01;;;;;;;73.20;45.20;;;4.50;99.80;;;;;;5071698;28;20229;-81
2021/11/26 12:29:36;;;;;;;69.30;41.90;;;4.50;99.80;;;;;;5065215;28;20226;-82
2021/11/26 12:32:12;;;;;;;64.63;38.45;;;4.40;99.80;;;;;;5066991;28;20223;-81
2021/11/26 12:34:43;;;;;;;69.50;38.60;;;4.50;99.80;;;;;;5066768;28;20224;-81
2021/11/26 12:37:20;;;;;;;65.78;39.90;;;4.40;99.80;;;;;;5065383;28;20470;-82
2021/11/26 12:39:49;;;;;;;64.97;38.97;;;4.40;99.80;;;;;;5062226;28;20872;-81
2021/11/26 12:42:18;;;;;;;61.28;40.70;;;4.40;99.80;;;;;;5067604;28;20251;-81
2021/11/26 12:44:56;;;;;;;67.65;40.38;;;4.30;99.80;;;;;;5066556;28;20227;-82
2021/11/26 12:47:35;;;;;;;70.75;41.00;;;4.20;99.80;;;;;;5068776;28;20223;-82
2021/11/26 12:52:52;;;;;;;72.05;41.55;;;4.30;99.80;;;;;;5065889;28;20238;-83
2021/11/26 12:55:20;;;;;;;65.50;39.05;;;4.30;99.80;;;;;;5066390;28;20238;-81
2021/11/26 12:57:55;;;;;;;79.40;46.53;;;4.30;99.80;;;;;;5065790;28;20227;-82
2021/11/26 13:00:23;;;;;;;69.28;42.30;;;4.30;99.80;;;;;;5064034;28;20847;-81